createdAt,value
2023-03-10T00:00:15.226Z,16.90
2023-03-10T00:02:49.643Z,16.90
2023-03-10T00:05:20.432Z,16.90
2023-03-10T00:07:51.288Z,16.80
2023-03-10T00:10:20.502Z,16.80
2023-03-10T00:12:49.571Z,16.80
2023-03-10T00:15:18.757Z,16.80
2023-03-10T00:17:52.566Z,16.80
2023-03-10T00:20:22.015Z,16.80
2023-03-10T00:22:52.506Z,16.80
2023-03-10T00:25:21.590Z,16.80
2023-03-10T00:27:52.767Z,16.70
2023-03-10T00:30:21.934Z,16.70
2023-03-10T00:32:52.529Z,16.50
2023-03-10T00:35:21.820Z,16.60
2023-03-10T00:37:52.227Z,16.60
2023-03-10T00:40:21.493Z,16.60
2023-03-10T00:42:50.453Z,16.50
2023-03-10T00:45:19.722Z,16.40
2023-03-10T00:47:50.422Z,16.30
2023-03-10T00:50:20.063Z,16.40
2023-03-10T00:52:51.337Z,16.40
2023-03-10T00:55:22.245Z,16.50
2023-03-10T00:57:51.624Z,16.50
2023-03-10T01:00:21.932Z,16.50
2023-03-10T01:02:53.034Z,16.50
2023-03-10T01:05:22.147Z,16.50
2023-03-10T01:07:51.822Z,16.60
2023-03-10T01:10:22.574Z,16.60
2023-03-10T01:12:51.756Z,16.60
2023-03-10T01:15:20.845Z,16.60
2023-03-10T01:17:50.178Z,16.60
2023-03-10T01:20:19.936Z,16.60
2023-03-10T01:22:49.352Z,16.60
2023-03-10T01:25:18.523Z,16.60
2023-03-10T01:27:49.199Z,16.60
2023-03-10T01:30:18.687Z,16.60
2023-03-10T01:32:47.837Z,16.60
2023-03-10T01:35:17.226Z,16.70
2023-03-10T01:37:46.848Z,16.70
2023-03-10T01:40:18.920Z,16.70
2023-03-10T01:42:49.590Z,16.70
2023-03-10T01:45:56.154Z,16.60
2023-03-10T01:48:26.409Z,16.70
2023-03-10T01:50:58.773Z,16.60
2023-03-10T01:53:29.494Z,16.70
2023-03-10T01:56:04.475Z,16.60
2023-03-10T01:58:40.540Z,16.60
2023-03-10T02:01:35.038Z,16.70
2023-03-10T02:04:09.822Z,16.70
2023-03-10T02:06:41.974Z,16.60
2023-03-10T02:09:11.898Z,16.30
2023-03-10T02:11:40.977Z,16.40
2023-03-10T02:14:11.668Z,16.50
2023-03-10T02:16:40.912Z,16.50
2023-03-10T02:19:18.698Z,16.50
2023-03-10T02:21:56.836Z,16.50
2023-03-10T02:24:31.193Z,16.60
2023-03-10T02:27:04.310Z,16.50
2023-03-10T02:29:52.457Z,16.40
2023-03-10T02:32:27.217Z,16.40
2023-03-10T02:34:56.822Z,16.30
2023-03-10T02:37:28.294Z,16.40
2023-03-10T02:39:58.105Z,16.50
2023-03-10T02:42:33.391Z,16.50
2023-03-10T02:45:05.798Z,16.50
2023-03-10T02:47:35.061Z,16.20
2023-03-10T02:50:04.229Z,16.30
2023-03-10T02:52:40.244Z,16.50
2023-03-10T02:55:15.574Z,16.50
2023-03-10T02:57:45.465Z,16.50
2023-03-10T03:00:17.442Z,16.50
2023-03-10T03:02:47.047Z,16.40
2023-03-10T03:05:16.241Z,16.20
2023-03-10T03:07:45.411Z,16.30
2023-03-10T03:10:14.925Z,16.20
2023-03-10T03:12:44.157Z,16.20
2023-03-10T03:15:13.559Z,16.20
2023-03-10T03:17:44.648Z,16.20
2023-03-10T03:20:16.544Z,16.10
2023-03-10T03:22:49.005Z,16.20
2023-03-10T03:25:20.645Z,16.30
2023-03-10T03:27:51.320Z,16.30
2023-03-10T03:30:23.899Z,16.40
2023-03-10T03:32:55.684Z,16.50
2023-03-10T03:35:27.671Z,16.40
2023-03-10T03:37:57.161Z,16.20
2023-03-10T03:40:29.101Z,16.30
2023-03-10T03:42:59.182Z,16.30
2023-03-10T03:45:30.649Z,16.20
2023-03-10T03:48:01.597Z,16.10
2023-03-10T03:50:33.563Z,16.20
2023-03-10T03:53:09.710Z,16.30
2023-03-10T03:55:38.793Z,16.40
2023-03-10T03:58:08.493Z,16.30
2023-03-10T04:00:40.288Z,16.30
2023-03-10T04:03:13.767Z,16.30
2023-03-10T04:05:42.847Z,16.30
2023-03-10T04:08:14.117Z,16.20
2023-03-10T04:10:43.511Z,16.20
2023-03-10T04:13:12.639Z,16.10
2023-03-10T04:15:41.918Z,16.10
2023-03-10T04:18:12.582Z,16.00
2023-03-10T04:20:42.654Z,16.00
2023-03-10T04:23:11.785Z,16.10
2023-03-10T04:25:43.074Z,16.10
2023-03-10T04:28:14.017Z,16.00
2023-03-10T04:30:44.097Z,16.00
2023-03-10T04:33:15.671Z,16.00
2023-03-10T04:35:47.760Z,16.10
2023-03-10T04:38:19.238Z,16.10
2023-03-10T04:40:55.420Z,16.10
2023-03-10T04:43:27.239Z,16.00
2023-03-10T04:45:57.117Z,16.00
2023-03-10T04:48:27.873Z,16.10
2023-03-10T04:50:57.698Z,16.00
2023-03-10T04:53:28.737Z,16.00
2023-03-10T04:55:58.588Z,16.00
2023-03-10T04:58:28.364Z,16.00
2023-03-10T05:01:04.261Z,16.00
2023-03-10T05:03:44.005Z,16.00
2023-03-10T05:06:15.711Z,16.00
2023-03-10T05:08:48.243Z,15.90
2023-03-10T05:11:19.670Z,15.90
2023-03-10T05:13:49.240Z,15.90
2023-03-10T05:16:22.038Z,15.90
2023-03-10T05:18:53.835Z,15.90
2023-03-10T05:21:27.095Z,15.90
2023-03-10T05:23:58.255Z,15.80
2023-03-10T05:26:28.205Z,15.80
2023-03-10T05:28:57.776Z,15.70
2023-03-10T05:31:36.641Z,15.80
2023-03-10T05:34:12.424Z,15.70
2023-03-10T05:36:41.562Z,15.80
2023-03-10T05:39:11.320Z,15.90
2023-03-10T05:41:45.128Z,15.80
2023-03-10T05:44:14.618Z,15.90
2023-03-10T05:46:43.752Z,15.80
2023-03-10T05:49:14.331Z,15.80
2023-03-10T05:51:43.675Z,15.90
2023-03-10T05:54:13.850Z,15.70
2023-03-10T05:56:44.024Z,15.70
2023-03-10T05:59:13.180Z,15.80
2023-03-10T06:01:42.301Z,15.90
2023-03-10T06:04:12.060Z,15.90
2023-03-10T06:06:42.872Z,15.90
2023-03-10T06:09:12.139Z,16.00
2023-03-10T06:11:41.146Z,15.90
2023-03-10T06:14:10.994Z,16.00
2023-03-10T06:16:40.268Z,15.90
2023-03-10T06:19:09.562Z,16.00
2023-03-10T06:21:38.676Z,16.00
2023-03-10T06:24:09.572Z,16.00
2023-03-10T06:26:38.911Z,16.00
2023-03-10T06:29:08.318Z,16.00
2023-03-10T06:31:37.733Z,16.00
2023-03-10T06:34:06.862Z,16.00
2023-03-10T06:36:37.545Z,16.00
2023-03-10T06:39:06.584Z,16.00
2023-03-10T06:41:37.895Z,16.00
2023-03-10T06:44:07.310Z,16.10
2023-03-10T06:46:36.721Z,16.10
2023-03-10T06:49:05.856Z,16.10
2023-03-10T06:51:34.926Z,16.10
2023-03-10T06:54:04.037Z,16.10
2023-03-10T06:56:33.444Z,16.10
2023-03-10T06:59:04.072Z,16.10
2023-03-10T07:01:34.526Z,16.10
2023-03-10T07:04:03.697Z,16.10
2023-03-10T07:06:33.118Z,16.10
2023-03-10T07:09:02.164Z,16.20
2023-03-10T07:11:31.680Z,16.20
2023-03-10T07:14:00.733Z,16.20
2023-03-10T07:16:31.276Z,16.20
2023-03-10T07:19:00.300Z,16.30
2023-03-10T07:21:29.319Z,16.30
2023-03-10T07:23:59.680Z,16.30
2023-03-10T07:26:29.004Z,16.30
2023-03-10T07:28:58.223Z,16.40
2023-03-10T07:31:27.337Z,16.40
2023-03-10T07:33:58.236Z,16.40
2023-03-10T07:36:27.750Z,16.40
2023-03-10T07:38:57.103Z,16.40
2023-03-10T07:41:26.190Z,16.40
2023-03-10T07:43:56.462Z,16.40
2023-03-10T07:46:25.622Z,16.40
2023-03-10T07:48:55.124Z,16.40
2023-03-10T07:51:25.955Z,16.40
2023-03-10T07:53:55.232Z,16.50
2023-03-10T07:56:24.641Z,16.50
2023-03-10T07:58:53.791Z,16.50
2023-03-10T08:01:23.716Z,16.60
2023-03-10T08:03:54.760Z,16.60
2023-03-10T08:06:28.749Z,16.60
2023-03-10T08:08:58.800Z,16.60
2023-03-10T08:11:28.362Z,16.70
2023-03-10T08:13:57.859Z,16.70
2023-03-10T08:16:27.249Z,16.70
2023-03-10T08:18:56.358Z,16.80
2023-03-10T08:21:27.527Z,16.90
2023-03-10T08:23:57.177Z,17.00
2023-03-10T08:26:26.450Z,17.00
2023-03-10T08:28:55.558Z,17.10
2023-03-10T08:31:24.683Z,17.10
2023-03-10T08:33:57.106Z,17.20
2023-03-10T08:36:30.646Z,17.20
2023-03-10T08:39:02.552Z,17.40
2023-03-10T08:41:37.444Z,17.40
2023-03-10T08:44:08.122Z,17.40
2023-03-10T08:46:37.463Z,17.40
2023-03-10T08:49:06.634Z,17.50
2023-03-10T08:51:37.337Z,17.40
2023-03-10T08:54:07.019Z,17.50
2023-03-10T08:56:36.864Z,17.50
2023-03-10T08:59:06.635Z,17.50
2023-03-10T09:01:37.969Z,17.60
2023-03-10T09:04:08.523Z,17.60
2023-03-10T09:06:39.792Z,17.60
2023-03-10T09:09:11.344Z,17.70
2023-03-10T09:11:42.313Z,17.70
2023-03-10T09:14:15.009Z,17.80
2023-03-10T09:16:46.220Z,17.90
2023-03-10T09:19:15.523Z,17.90
2023-03-10T09:21:47.878Z,18.00
2023-03-10T09:24:18.218Z,18.00
2023-03-10T09:26:47.580Z,18.00
2023-03-10T09:29:16.657Z,18.10
2023-03-10T09:31:47.884Z,18.10
2023-03-10T09:34:17.653Z,18.20
2023-03-10T09:36:48.483Z,18.30
2023-03-10T09:39:17.967Z,18.30
2023-03-10T09:42:07.397Z,18.40
2023-03-10T09:44:43.578Z,18.40
2023-03-10T09:47:27.870Z,18.50
2023-03-10T09:50:13.727Z,18.60
2023-03-10T09:52:48.354Z,18.60
2023-03-10T09:55:23.014Z,18.50
2023-03-10T09:57:54.637Z,18.50
2023-03-10T10:00:26.300Z,18.60
2023-03-10T10:03:03.966Z,18.70
2023-03-10T10:05:35.850Z,18.80
2023-03-10T10:08:19.756Z,18.80
2023-03-10T10:10:52.236Z,18.80
2023-03-10T10:13:23.350Z,18.90
2023-03-10T10:16:18.222Z,19.00
2023-03-10T10:18:53.530Z,19.10
2023-03-10T10:21:33.566Z,19.10
2023-03-10T10:24:11.590Z,19.10
2023-03-10T10:26:40.797Z,19.20
2023-03-10T10:29:17.511Z,19.20
2023-03-10T10:32:04.828Z,19.40
2023-03-10T10:34:35.110Z,19.40
2023-03-10T10:37:04.281Z,19.50
2023-03-10T10:39:37.990Z,19.60
2023-03-10T10:42:24.413Z,19.60
2023-03-10T10:44:54.935Z,19.60
2023-03-10T10:47:30.059Z,19.60
2023-03-10T10:50:18.299Z,19.70
2023-03-10T10:52:50.083Z,19.70
2023-03-10T10:55:30.641Z,19.80
2023-03-10T10:58:02.154Z,19.80
2023-03-10T11:00:33.866Z,19.80
2023-03-10T11:03:03.289Z,19.90
2023-03-10T11:05:38.898Z,20.00
2023-03-10T11:08:35.148Z,20.20
2023-03-10T11:11:18.881Z,20.10
2023-03-10T11:14:14.639Z,20.20
2023-03-10T11:16:51.644Z,20.30
2023-03-10T11:19:31.255Z,20.40
2023-03-10T11:22:06.038Z,20.40
2023-03-10T11:24:42.381Z,20.50
2023-03-10T11:27:20.713Z,20.50
2023-03-10T11:30:05.054Z,20.30
2023-03-10T11:32:45.207Z,20.40
2023-03-10T11:35:24.911Z,20.40
2023-03-10T11:38:04.280Z,20.50
2023-03-10T11:40:43.806Z,20.60
2023-03-10T11:43:24.887Z,20.80
2023-03-10T11:45:55.768Z,20.70
2023-03-10T11:48:38.317Z,20.70
2023-03-10T11:51:08.612Z,20.80
2023-03-10T11:53:42.554Z,20.80
2023-03-10T11:56:14.995Z,20.90
2023-03-10T11:58:51.142Z,20.90
2023-03-10T12:01:47.043Z,21.00
2023-03-10T12:04:21.648Z,21.20
2023-03-10T12:06:56.537Z,21.50
2023-03-10T12:09:34.708Z,21.60
2023-03-10T12:12:06.567Z,21.70
2023-03-10T12:14:37.564Z,21.60
2023-03-10T12:17:07.182Z,21.60
2023-03-10T12:20:18.342Z,21.60
2023-03-10T12:22:50.432Z,21.60
2023-03-10T12:25:44.297Z,21.60
2023-03-10T12:28:22.585Z,21.80
2023-03-10T12:30:56.963Z,22.00
2023-03-10T12:34:09.884Z,22.10
2023-03-10T12:36:42.109Z,22.10
2023-03-10T12:39:33.776Z,22.10
2023-03-10T12:42:03.976Z,22.20
2023-03-10T12:44:52.889Z,22.20
2023-03-10T12:47:39.723Z,22.20
2023-03-10T12:50:24.267Z,22.30
2023-03-10T12:53:00.092Z,22.40
2023-03-10T12:55:29.948Z,22.40
2023-03-10T12:58:05.372Z,22.30
2023-03-10T13:00:46.259Z,22.30
2023-03-10T13:03:26.298Z,22.30
2023-03-10T13:06:01.886Z,22.50
2023-03-10T13:08:44.418Z,22.70
2023-03-10T13:11:28.892Z,22.70
2023-03-10T13:14:01.715Z,22.60
2023-03-10T13:16:31.237Z,22.70
2023-03-10T13:19:02.157Z,22.70
2023-03-10T13:21:33.499Z,22.80
2023-03-10T13:24:04.354Z,22.90
2023-03-10T13:26:33.820Z,23.00
2023-03-10T13:29:05.301Z,23.20
2023-03-10T13:31:35.449Z,23.10
2023-03-10T13:34:19.292Z,23.00
2023-03-10T13:36:48.991Z,23.10
2023-03-10T13:39:21.287Z,23.10
2023-03-10T13:41:54.821Z,23.10
2023-03-10T13:44:26.210Z,23.10
2023-03-10T13:46:58.935Z,23.10
2023-03-10T13:49:32.687Z,23.00
2023-03-10T13:52:03.749Z,23.00
2023-03-10T13:54:37.130Z,23.00
2023-03-10T13:57:13.589Z,23.10
2023-03-10T13:59:42.711Z,23.10
2023-03-10T14:02:19.586Z,23.10
2023-03-10T14:04:52.009Z,23.00
2023-03-10T14:07:23.738Z,22.90
2023-03-10T14:10:15.127Z,22.90
2023-03-10T14:12:46.932Z,22.90
2023-03-10T14:15:25.946Z,22.90
2023-03-10T14:18:19.717Z,22.80
2023-03-10T14:20:50.411Z,22.70
2023-03-10T14:23:37.535Z,22.70
2023-03-10T14:26:16.065Z,22.70
2023-03-10T14:28:45.291Z,22.90
2023-03-10T14:31:21.944Z,23.10
2023-03-10T14:33:51.244Z,23.20
2023-03-10T14:36:21.768Z,23.10
2023-03-10T14:38:50.847Z,23.30
2023-03-10T14:41:24.352Z,23.40
2023-03-10T14:43:54.021Z,23.30
2023-03-10T14:46:23.377Z,23.20
2023-03-10T14:48:52.706Z,23.10
2023-03-10T14:51:34.931Z,23.20
2023-03-10T14:54:05.234Z,23.20
2023-03-10T14:56:35.631Z,23.30
2023-03-10T14:59:06.788Z,23.30
2023-03-10T15:01:37.813Z,23.30
2023-03-10T15:04:07.014Z,23.20
2023-03-10T15:06:37.648Z,23.00
2023-03-10T15:09:06.830Z,23.00
2023-03-10T15:11:37.830Z,22.80
2023-03-10T15:14:14.458Z,22.80
2023-03-10T15:16:43.876Z,22.80
2023-03-10T15:19:20.659Z,22.80
2023-03-10T15:21:51.257Z,22.90
2023-03-10T15:24:20.769Z,23.10
2023-03-10T15:26:49.777Z,23.70
2023-03-10T15:29:20.595Z,23.80
2023-03-10T15:31:49.493Z,24.10
2023-03-10T15:34:20.296Z,24.60
2023-03-10T15:36:50.905Z,24.30
2023-03-10T15:39:31.201Z,23.90
2023-03-10T15:42:00.915Z,23.90
2023-03-10T15:44:30.034Z,24.00
2023-03-10T15:46:58.998Z,23.90
2023-03-10T15:49:28.307Z,23.80
2023-03-10T15:51:58.796Z,23.80
2023-03-10T15:54:27.667Z,23.70
2023-03-10T15:56:56.627Z,24.00
2023-03-10T15:59:25.870Z,24.10
2023-03-10T16:01:55.099Z,24.20
2023-03-10T16:04:24.966Z,24.50
2023-03-10T16:06:54.240Z,24.70
2023-03-10T16:09:24.651Z,24.60
2023-03-10T16:11:53.584Z,24.30
2023-03-10T16:14:22.590Z,24.20
2023-03-10T16:16:51.779Z,24.20
2023-03-10T16:19:20.916Z,24.20
2023-03-10T16:21:50.045Z,23.80
2023-03-10T16:24:18.958Z,23.50
2023-03-10T16:26:49.789Z,23.10
2023-03-10T16:29:19.971Z,23.00
2023-03-10T16:31:49.194Z,22.80
2023-03-10T16:34:18.386Z,22.70
2023-03-10T16:36:47.529Z,22.70
2023-03-10T16:39:17.899Z,22.60
2023-03-10T16:41:48.468Z,22.60
2023-03-10T16:44:17.392Z,22.50
2023-03-10T16:46:46.439Z,22.40
2023-03-10T16:49:16.756Z,22.30
2023-03-10T16:51:46.965Z,22.30
2023-03-10T16:54:18.680Z,22.30
2023-03-10T16:56:51.123Z,22.30
2023-03-10T16:59:22.537Z,22.20
2023-03-10T17:01:52.395Z,22.20
2023-03-10T17:04:22.201Z,22.20
2023-03-10T17:06:51.936Z,22.10
2023-03-10T17:09:20.913Z,22.10
2023-03-10T17:11:55.117Z,22.00
2023-03-10T17:14:24.837Z,21.90
2023-03-10T17:16:56.671Z,21.90
2023-03-10T17:19:30.174Z,21.90
2023-03-10T17:22:00.372Z,21.80
2023-03-10T17:24:31.430Z,21.80
2023-03-10T17:27:02.220Z,21.80
2023-03-10T17:29:31.447Z,21.70
2023-03-10T17:32:00.546Z,21.70
2023-03-10T17:34:29.671Z,21.60
2023-03-10T17:36:58.550Z,21.60
2023-03-10T17:39:29.090Z,21.50
2023-03-10T17:41:58.220Z,21.40
2023-03-10T17:44:28.664Z,21.40
2023-03-10T17:46:57.745Z,21.40
2023-03-10T17:49:26.691Z,21.30
2023-03-10T17:51:55.800Z,21.30
2023-03-10T17:54:24.939Z,21.30
2023-03-10T17:56:54.046Z,21.30
2023-03-10T17:59:22.952Z,21.20
2023-03-10T18:01:53.563Z,21.20
2023-03-10T18:04:22.659Z,21.10
2023-03-10T18:06:51.945Z,21.10
2023-03-10T18:09:20.941Z,21.10
2023-03-10T18:11:49.942Z,21.00
2023-03-10T18:14:19.139Z,21.00
2023-03-10T18:16:48.256Z,20.90
2023-03-10T18:19:21.434Z,21.00
2023-03-10T18:21:51.238Z,20.90
2023-03-10T18:24:20.524Z,20.90
2023-03-10T18:26:49.509Z,20.80
2023-03-10T18:29:18.438Z,20.80
2023-03-10T18:31:47.419Z,20.80
2023-03-10T18:34:16.281Z,20.80
2023-03-10T18:36:46.847Z,20.80
2023-03-10T18:39:16.307Z,20.60
2023-03-10T18:41:45.247Z,20.70
2023-03-10T18:44:14.087Z,20.70
2023-03-10T18:46:42.900Z,20.60
2023-03-10T18:49:11.823Z,20.60
2023-03-10T18:51:40.608Z,20.60
2023-03-10T18:54:10.977Z,20.60
2023-03-10T18:56:40.038Z,20.60
2023-03-10T18:59:08.973Z,20.60
2023-03-10T19:01:38.017Z,20.50
2023-03-10T19:04:07.065Z,20.50
2023-03-10T19:06:36.580Z,20.50
2023-03-10T19:09:09.140Z,20.50
2023-03-10T19:11:40.245Z,20.50
2023-03-10T19:14:09.316Z,20.50
2023-03-10T19:16:39.984Z,20.40
2023-03-10T19:19:09.566Z,20.40
2023-03-10T19:21:40.046Z,20.40
2023-03-10T19:24:09.744Z,20.40
2023-03-10T19:26:40.193Z,20.30
2023-03-10T19:29:09.316Z,20.30
2023-03-10T19:31:38.207Z,20.30
2023-03-10T19:34:07.452Z,20.30
2023-03-10T19:36:36.455Z,20.20
2023-03-10T19:39:06.183Z,20.20
2023-03-10T19:41:35.042Z,20.20
2023-03-10T19:44:05.727Z,20.20
2023-03-10T19:46:34.702Z,19.80
2023-03-10T19:49:04.206Z,19.70
2023-03-10T19:51:33.294Z,19.60
2023-03-10T19:54:04.284Z,19.30
2023-03-10T19:56:33.603Z,19.00
2023-03-10T19:59:03.387Z,18.80
2023-03-10T20:01:34.810Z,18.70
2023-03-10T20:04:05.089Z,18.90
2023-03-10T20:06:34.105Z,18.80
2023-03-10T20:09:03.962Z,18.70
2023-03-10T20:11:32.901Z,18.60
2023-03-10T20:14:01.803Z,18.70
2023-03-10T20:16:32.697Z,18.80
2023-03-10T20:19:03.348Z,18.70
2023-03-10T20:21:32.492Z,18.80
2023-03-10T20:24:01.505Z,18.70
2023-03-10T20:26:30.647Z,18.90
2023-03-10T20:29:01.707Z,18.70
2023-03-10T20:31:34.173Z,18.80
2023-03-10T20:34:06.797Z,18.80
2023-03-10T20:36:37.861Z,18.90
2023-03-10T20:39:08.698Z,19.20
2023-03-10T20:41:37.719Z,19.40
2023-03-10T20:44:14.052Z,19.50
2023-03-10T20:46:43.613Z,19.60
2023-03-10T20:49:14.437Z,19.70
2023-03-10T20:51:43.382Z,19.70
2023-03-10T20:54:12.225Z,19.80
2023-03-10T20:56:41.195Z,19.80
2023-03-10T20:59:09.984Z,19.80
2023-03-10T21:01:42.473Z,19.90
2023-03-10T21:04:11.483Z,19.80
2023-03-10T21:06:41.798Z,19.80
2023-03-10T21:09:10.998Z,19.80
2023-03-10T21:11:40.690Z,19.90
2023-03-10T21:14:09.844Z,19.80
2023-03-10T21:16:41.769Z,19.80
2023-03-10T21:19:11.615Z,19.80
2023-03-10T21:21:41.940Z,19.80
2023-03-10T21:24:11.284Z,19.80
2023-03-10T21:26:40.170Z,19.80
2023-03-10T21:29:09.169Z,19.80
2023-03-10T21:31:38.630Z,19.80
2023-03-10T21:34:07.527Z,19.80
2023-03-10T21:36:36.467Z,19.90
2023-03-10T21:39:09.209Z,19.80
2023-03-10T21:41:38.287Z,19.80
2023-03-10T21:44:07.668Z,19.90
2023-03-10T21:46:37.066Z,19.80
2023-03-10T21:49:06.210Z,19.90
2023-03-10T21:51:36.073Z,19.90
2023-03-10T21:54:07.625Z,19.90
2023-03-10T21:56:36.618Z,19.90
2023-03-10T21:59:05.543Z,19.80
2023-03-10T22:01:34.760Z,19.90
2023-03-10T22:04:04.888Z,19.90
2023-03-10T22:06:33.854Z,19.80
2023-03-10T22:09:02.787Z,19.90
2023-03-10T22:11:33.712Z,19.90
2023-03-10T22:14:02.796Z,19.80
2023-03-10T22:16:31.718Z,19.90
2023-03-10T22:19:00.552Z,19.90
2023-03-10T22:21:29.492Z,19.80
2023-03-10T22:24:00.336Z,19.90
2023-03-10T22:26:29.331Z,19.90
2023-03-10T22:29:00.461Z,19.80
2023-03-10T22:31:29.608Z,19.80
2023-03-10T22:33:58.806Z,19.80
2023-03-10T22:36:27.694Z,19.90
2023-03-10T22:38:56.737Z,19.80
2023-03-10T22:41:26.123Z,19.90
2023-03-10T22:43:56.131Z,19.90
2023-03-10T22:46:26.549Z,19.90
2023-03-10T22:48:55.373Z,19.90
2023-03-10T22:51:24.308Z,19.90
2023-03-10T22:53:53.170Z,19.90
2023-03-10T22:56:22.261Z,19.90
2023-03-10T22:58:51.332Z,19.90
2023-03-10T23:01:20.260Z,19.90
2023-03-10T23:03:51.012Z,19.90
2023-03-10T23:06:20.448Z,19.90
2023-03-10T23:08:49.413Z,19.80
2023-03-10T23:11:18.660Z,19.90
2023-03-10T23:13:47.563Z,19.90
2023-03-10T23:16:18.300Z,19.80
2023-03-10T23:18:48.200Z,19.90
2023-03-10T23:21:18.462Z,19.90
2023-03-10T23:23:48.893Z,19.80
2023-03-10T23:26:17.826Z,19.80
2023-03-10T23:28:47.556Z,19.80
2023-03-10T23:31:17.235Z,19.90
2023-03-10T23:33:48.488Z,19.90
2023-03-10T23:36:19.288Z,19.90
2023-03-10T23:38:48.746Z,19.80
2023-03-10T23:41:18.570Z,19.80
2023-03-10T23:43:47.842Z,19.90
2023-03-10T23:46:16.880Z,19.80
2023-03-10T23:48:45.875Z,19.90
2023-03-10T23:51:15.908Z,19.90
2023-03-10T23:53:46.580Z,19.80
2023-03-10T23:56:15.459Z,19.90
2023-03-10T23:58:44.478Z,19.80
